Time;durP1;ratioP1;P1;durP2;ratioP2;P2;SDS_P1;SDS_P2;PMS_P1;PMS_P2;Temp;Humidity;BMP_temperature;BMP_pressure;BME280_temperature;BME280_humidity;BME280_pressure;Samples;Min_cycle;Max_cycle;Signal;HPM_P1;HPM_P2
2021/01/19 00:00:12;;;;;;;11.50;2.07;;;3.60;99.90;;;;;;4958337;28;20178;-84
2021/01/19 00:02:37;;;;;;;12.33;2.70;;;3.60;99.90;;;;;;4958228;28;20178;-84
2021/01/19 00:05:03;;;;;;;7.13;1.20;;;3.70;99.90;;;;;;4958158;28;20178;-83
2021/01/19 00:07:29;;;;;;;11.73;2.10;;;3.70;99.90;;;;;;4960029;28;20209;-85
2021/01/19 00:09:55;;;;;;;10.73;1.70;;;3.70;99.90;;;;;;4970525;28;20542;-84
2021/01/19 00:12:21;;;;;;;10.07;2.30;;;3.70;99.90;;;;;;4977530;28;20180;-85
2021/01/19 00:14:46;;;;;;;9.00;1.87;;;3.80;99.90;;;;;;4977615;28;20555;-85
2021/01/19 00:17:12;;;;;;;9.67;2.30;;;3.80;99.90;;;;;;4977805;28;20225;-84
2021/01/19 00:19:38;;;;;;;15.60;2.77;;;3.80;99.90;;;;;;4977221;28;20714;-84
2021/01/19 00:22:03;;;;;;;9.10;1.87;;;3.80;99.90;;;;;;4961704;28;20193;-84
2021/01/19 00:24:29;;;;;;;9.73;2.20;;;3.80;99.90;;;;;;4969011;28;20189;-84
2021/01/19 00:26:54;;;;;;;10.50;2.10;;;3.80;99.90;;;;;;4977112;28;20239;-84
2021/01/19 00:29:20;;;;;;;11.07;2.30;;;3.80;99.90;;;;;;4976345;28;20234;-86
2021/01/19 00:31:45;;;;;;;8.60;2.03;;;3.80;99.90;;;;;;4976528;28;20182;-85
2021/01/19 00:34:11;;;;;;;14.37;2.20;;;3.80;99.90;;;;;;4976623;28;20174;-82
2021/01/19 00:36:36;;;;;;;12.77;2.20;;;3.90;99.90;;;;;;4971249;28;20296;-84
2021/01/19 00:39:02;;;;;;;12.20;1.80;;;3.80;99.90;;;;;;4970099;28;20647;-84
2021/01/19 00:41:28;;;;;;;10.00;1.50;;;3.90;99.90;;;;;;4976502;28;20186;-83
2021/01/19 00:43:53;;;;;;;7.57;1.20;;;3.90;99.90;;;;;;4976295;28;20304;-84
2021/01/19 00:46:19;;;;;;;7.97;1.33;;;3.90;99.90;;;;;;4976170;28;20236;-85
2021/01/19 00:48:44;;;;;;;5.97;1.10;;;3.90;99.90;;;;;;4971672;28;20182;-85
2021/01/19 00:51:10;;;;;;;7.63;1.30;;;3.90;99.90;;;;;;4963974;28;20635;-84
2021/01/19 00:53:35;;;;;;;3.80;0.87;;;3.90;99.90;;;;;;4976275;28;20180;-84
2021/01/19 00:56:01;;;;;;;5.57;1.27;;;3.90;99.90;;;;;;4976234;28;20197;-84
2021/01/19 00:58:26;;;;;;;7.47;0.97;;;3.90;99.90;;;;;;4975981;28;20181;-83
2021/01/19 01:00:52;;;;;;;5.13;0.87;;;3.90;99.90;;;;;;4976182;28;20640;-86
2021/01/19 01:03:17;;;;;;;5.07;0.90;;;3.90;99.90;;;;;;4971310;28;20262;-84
2021/01/19 01:05:43;;;;;;;6.70;1.67;;;3.90;99.90;;;;;;4966856;28;20178;-86
2021/01/19 01:08:08;;;;;;;3.60;0.83;;;3.90;99.90;;;;;;4976042;28;20687;-84
2021/01/19 01:10:33;;;;;;;3.90;0.80;;;3.90;99.90;;;;;;4976864;28;20186;-85
2021/01/19 01:12:59;;;;;;;3.30;0.77;;;3.90;99.90;;;;;;4976493;28;20196;-85
2021/01/19 01:15:36;;;;;;;9.10;0.90;;;3.90;99.90;;;;;;4976657;28;20259;-85
2021/01/19 01:18:03;;;;;;;6.77;1.33;;;3.90;99.90;;;;;;4969303;28;20209;-86
2021/01/19 01:20:28;;;;;;;1.97;0.70;;;3.90;99.90;;;;;;4974040;28;20560;-84
2021/01/19 01:22:54;;;;;;;6.90;1.00;;;3.90;99.90;;;;;;4975739;28;20177;-87
2021/01/19 01:25:20;;;;;;;4.90;1.43;;;3.90;99.90;;;;;;4975849;28;20252;-84
2021/01/19 01:27:47;;;;;;;10.37;1.93;;;4.00;99.90;;;;;;4975849;28;20271;-84
2021/01/19 01:30:14;;;;;;;6.37;2.17;;;4.00;99.90;;;;;;4972084;28;20178;-84
2021/01/19 01:32:41;;;;;;;14.00;3.50;;;4.00;99.90;;;;;;4963722;28;20182;-85
2021/01/19 01:35:07;;;;;;;18.80;4.63;;;4.00;99.90;;;;;;4959057;28;20178;-84
2021/01/19 01:37:33;;;;;;;16.40;4.83;;;4.00;99.90;;;;;;4973498;28;20218;-84
2021/01/19 01:39:58;;;;;;;16.20;4.47;;;4.00;99.90;;;;;;4975794;28;20193;-84
2021/01/19 01:42:25;;;;;;;18.07;5.50;;;4.00;99.90;;;;;;4976025;28;20186;-85
2021/01/19 01:44:51;;;;;;;15.43;5.47;;;4.10;99.90;;;;;;4974217;28;20181;-84
2021/01/19 01:47:23;;;;;;;14.33;4.80;;;4.10;99.90;;;;;;4961255;28;20296;-86
2021/01/19 01:49:50;;;;;;;20.57;5.17;;;4.10;99.90;;;;;;4939565;28;20219;-86
2021/01/19 01:52:17;;;;;;;22.47;5.83;;;4.20;99.90;;;;;;4956204;28;20178;-85
2021/01/19 01:54:44;;;;;;;20.90;5.63;;;4.20;99.90;;;;;;4956172;28;20569;-83
2021/01/19 01:57:10;;;;;;;21.67;5.10;;;4.20;99.90;;;;;;4955740;28;20660;-84
2021/01/19 01:59:36;;;;;;;21.17;5.17;;;4.20;99.90;;;;;;4955045;28;20184;-85
2021/01/19 02:02:11;;;;;;;23.10;6.10;;;4.20;99.90;;;;;;4959394;28;20265;-84
2021/01/19 02:04:37;;;;;;;21.03;7.00;;;4.30;99.90;;;;;;4977573;28;20188;-85
2021/01/19 02:07:14;;;;;;;23.83;7.10;;;4.30;99.90;;;;;;4979149;28;20205;-84
2021/01/19 02:09:46;;;;;;;19.17;5.40;;;4.20;99.90;;;;;;4979218;28;20173;-84
2021/01/19 02:12:20;;;;;;;17.63;5.10;;;4.30;99.90;;;;;;4979410;28;20640;-84
2021/01/19 02:15:01;;;;;;;22.30;6.00;;;4.30;99.90;;;;;;4976595;28;20647;-85
2021/01/19 02:17:43;;;;;;;16.43;5.47;;;4.30;99.90;;;;;;4971591;28;20194;-84
2021/01/19 02:20:33;;;;;;;24.67;6.10;;;4.30;99.90;;;;;;4980157;28;20219;-85
2021/01/19 02:23:06;;;;;;;15.97;4.53;;;4.30;99.90;;;;;;4980358;28;20184;-84
2021/01/19 02:25:54;;;;;;;17.93;4.53;;;4.30;99.90;;;;;;4979985;28;20181;-85
2021/01/19 02:28:47;;;;;;;14.40;4.30;;;4.40;99.90;;;;;;4968292;28;20292;-84
2021/01/19 02:31:29;;;;;;;17.40;4.97;;;4.30;99.90;;;;;;4963150;28;20652;-84
2021/01/19 02:34:25;;;;;;;13.63;3.60;;;4.40;99.90;;;;;;4959411;28;20201;-84
2021/01/19 02:37:02;;;;;;;19.70;4.37;;;4.40;99.90;;;;;;4963176;28;20209;-83
2021/01/19 02:40:01;;;;;;;13.23;3.70;;;4.30;99.90;;;;;;4978768;28;20490;-85
2021/01/19 02:42:34;;;;;;;15.93;3.90;;;4.40;99.90;;;;;;4978657;28;20232;-83
2021/01/19 02:45:03;;;;;;;13.30;3.47;;;4.30;99.90;;;;;;4978704;28;20697;-84
2021/01/19 02:47:29;;;;;;;13.67;3.97;;;4.40;99.90;;;;;;4979735;28;20210;-85
2021/01/19 02:49:54;;;;;;;15.17;3.70;;;4.30;99.90;;;;;;4966699;28;20194;-84
2021/01/19 02:52:20;;;;;;;15.07;3.40;;;4.30;99.90;;;;;;4973111;28;20182;-84
2021/01/19 02:54:46;;;;;;;12.07;3.50;;;4.30;99.90;;;;;;4980584;28;20636;-87
2021/01/19 02:57:46;;;;;;;15.67;4.10;;;4.30;99.90;;;;;;4977373;28;20232;-86
2021/01/19 03:00:13;;;;;;;14.27;3.73;;;4.30;99.90;;;;;;4963077;28;20659;-85
2021/01/19 03:02:42;;;;;;;16.50;3.43;;;4.30;99.90;;;;;;4961338;28;20270;-85
2021/01/19 03:05:10;;;;;;;19.50;4.83;;;4.20;99.90;;;;;;4960597;28;20181;-85
2021/01/19 03:07:43;;;;;;;18.03;4.20;;;4.30;99.90;;;;;;4960336;28;20693;-85
2021/01/19 03:10:14;;;;;;;14.53;3.93;;;4.20;99.90;;;;;;4960401;28;20202;-85
2021/01/19 03:12:43;;;;;;;15.33;3.83;;;4.20;99.90;;;;;;4964704;28;20224;-84
2021/01/19 03:15:09;;;;;;;22.13;5.57;;;4.30;99.90;;;;;;4973442;28;20183;-85
2021/01/19 03:17:35;;;;;;;18.63;4.43;;;4.30;99.90;;;;;;4978992;28;20362;-86
2021/01/19 03:20:01;;;;;;;14.77;4.27;;;4.30;99.90;;;;;;4979574;28;20253;-84
2021/01/19 03:22:26;;;;;;;12.03;4.10;;;4.30;99.90;;;;;;4979386;28;20184;-85
2021/01/19 03:24:52;;;;;;;12.00;3.47;;;4.30;99.90;;;;;;4979020;28;20276;-84
2021/01/19 03:27:17;;;;;;;20.60;5.07;;;4.30;99.90;;;;;;4968366;28;20263;-86
2021/01/19 03:29:43;;;;;;;15.13;4.63;;;4.30;99.90;;;;;;4970258;28;20180;-85
2021/01/19 03:32:08;;;;;;;20.50;5.80;;;4.30;99.90;;;;;;4963220;28;20212;-86
2021/01/19 03:34:34;;;;;;;17.73;4.73;;;4.30;99.90;;;;;;4964690;28;20282;-85
2021/01/19 03:37:01;;;;;;;18.40;5.30;;;4.30;99.90;;;;;;4958618;28;20213;-85
2021/01/19 03:39:26;;;;;;;16.73;4.80;;;4.30;99.90;;;;;;4958688;28;20245;-83
2021/01/19 03:41:52;;;;;;;18.13;5.80;;;4.30;99.90;;;;;;4958768;28;20182;-85
2021/01/19 03:44:17;;;;;;;21.70;5.70;;;4.30;99.90;;;;;;4958293;28;20635;-84
2021/01/19 03:46:43;;;;;;;16.23;5.63;;;4.20;99.90;;;;;;4962525;28;20240;-85
2021/01/19 03:49:08;;;;;;;17.27;6.10;;;4.20;99.90;;;;;;4972113;28;20276;-85
2021/01/19 03:51:34;;;;;;;20.43;7.10;;;4.20;99.90;;;;;;4947103;28;20214;-85
2021/01/19 03:53:59;;;;;;;19.90;6.80;;;4.20;99.90;;;;;;4939815;28;20259;-84
2021/01/19 03:56:25;;;;;;;19.03;7.53;;;4.20;99.90;;;;;;4963183;28;20644;-84
2021/01/19 03:58:51;;;;;;;27.97;7.87;;;4.30;99.90;;;;;;4977959;28;20289;-84
2021/01/19 04:01:16;;;;;;;19.63;6.67;;;4.20;99.90;;;;;;4978078;28;20186;-84
2021/01/19 04:03:42;;;;;;;27.27;8.93;;;4.20;99.90;;;;;;4978012;28;20173;-85
2021/01/19 04:06:08;;;;;;;24.70;8.77;;;4.20;99.90;;;;;;4977864;28;20241;-84
2021/01/19 04:08:35;;;;;;;25.30;8.83;;;4.20;99.90;;;;;;4970321;28;20210;-86
2021/01/19 04:11:01;;;;;;;19.03;8.73;;;4.20;99.90;;;;;;4969346;28;20181;-84
2021/01/19 04:13:27;;;;;;;28.63;9.93;;;4.10;99.90;;;;;;4972149;28;20695;-84
2021/01/19 04:15:53;;;;;;;27.37;10.77;;;4.20;99.90;;;;;;4969253;28;20217;-85
2021/01/19 04:18:19;;;;;;;28.70;11.57;;;4.10;99.90;;;;;;4977302;28;20663;-84
2021/01/19 04:20:45;;;;;;;31.27;12.07;;;4.20;99.90;;;;;;4977000;28;20194;-84
2021/01/19 04:23:14;;;;;;;28.30;11.07;;;4.20;99.90;;;;;;4967572;28;20602;-82
2021/01/19 04:25:49;;;;;;;29.23;11.13;;;4.20;99.90;;;;;;4967259;28;20190;-84
2021/01/19 04:28:15;;;;;;;26.13;11.77;;;4.20;99.90;;;;;;4966713;28;20207;-85
2021/01/19 04:30:42;;;;;;;31.13;12.40;;;4.20;99.90;;;;;;4967602;28;20192;-83
2021/01/19 04:33:08;;;;;;;27.37;11.57;;;4.20;99.90;;;;;;4976806;28;20184;-84
2021/01/19 04:35:33;;;;;;;29.73;12.67;;;4.20;99.90;;;;;;4976642;28;20264;-84
2021/01/19 04:37:59;;;;;;;29.67;12.63;;;4.20;99.90;;;;;;4974456;28;20687;-85
2021/01/19 04:40:25;;;;;;;27.43;11.87;;;4.20;99.90;;;;;;4968926;28;20226;-85
2021/01/19 04:42:51;;;;;;;27.00;11.73;;;4.20;99.90;;;;;;4977577;28;20698;-85
2021/01/19 04:45:17;;;;;;;26.90;11.40;;;4.20;99.90;;;;;;4977998;28;20508;-85
2021/01/19 04:47:43;;;;;;;23.93;11.20;;;4.20;99.90;;;;;;4959514;28;20217;-83
2021/01/19 04:50:10;;;;;;;27.47;12.17;;;4.20;99.90;;;;;;4960832;28;20605;-84
2021/01/19 04:52:40;;;;;;;28.93;13.43;;;4.30;99.90;;;;;;4957306;28;20179;-83
2021/01/19 04:55:11;;;;;;;29.73;12.43;;;4.20;99.90;;;;;;4957255;28;20189;-84
2021/01/19 04:57:38;;;;;;;26.03;12.03;;;4.20;99.90;;;;;;4956106;28;20199;-84
2021/01/19 05:00:05;;;;;;;22.97;11.57;;;4.20;99.90;;;;;;4957272;28;20654;-85
2021/01/19 05:02:54;;;;;;;28.17;12.17;;;4.20;99.90;;;;;;4958083;28;20215;-85
2021/01/19 05:05:37;;;;;;;25.20;11.17;;;4.30;99.90;;;;;;4957797;28;20178;-84
2021/01/19 05:08:23;;;;;;;24.33;10.30;;;4.20;99.90;;;;;;4957702;28;20232;-84
2021/01/19 05:10:54;;;;;;;24.10;10.97;;;4.20;99.90;;;;;;4957881;28;20209;-84
2021/01/19 05:13:50;;;;;;;22.13;11.07;;;4.30;99.90;;;;;;4957602;28;20181;-84
2021/01/19 05:16:32;;;;;;;28.23;10.30;;;4.30;99.90;;;;;;4957609;28;20336;-85
2021/01/19 05:19:00;;;;;;;23.53;9.80;;;4.30;99.90;;;;;;4958435;28;20167;-84
2021/01/19 05:21:25;;;;;;;28.27;11.03;;;4.30;99.90;;;;;;4958405;28;20178;-84
2021/01/19 05:23:51;;;;;;;22.93;10.43;;;4.30;99.90;;;;;;4958175;28;20708;-84
2021/01/19 05:26:18;;;;;;;26.97;11.30;;;4.30;99.90;;;;;;4957776;28;20198;-84
2021/01/19 05:28:47;;;;;;;26.43;12.17;;;4.30;99.90;;;;;;4956979;28;20199;-84
2021/01/19 05:31:16;;;;;;;21.77;9.80;;;4.20;99.90;;;;;;4957685;28;20175;-83
2021/01/19 05:33:58;;;;;;;17.87;8.70;;;4.20;99.90;;;;;;4961530;28;20177;-84
2021/01/19 05:36:26;;;;;;;21.33;9.93;;;4.30;99.90;;;;;;4958098;28;20249;-86
2021/01/19 05:38:55;;;;;;;17.47;7.80;;;4.30;99.90;;;;;;4961041;28;20663;-85
2021/01/19 05:41:31;;;;;;;17.17;7.83;;;4.30;99.90;;;;;;4961801;28;20682;-85
2021/01/19 05:44:18;;;;;;;14.07;6.80;;;4.20;99.90;;;;;;4949095;28;20206;-86
2021/01/19 05:47:03;;;;;;;18.17;7.47;;;4.20;99.90;;;;;;4968203;28;20315;-85
2021/01/19 05:49:38;;;;;;;15.57;7.47;;;4.30;99.90;;;;;;4954582;28;20656;-84
2021/01/19 05:52:07;;;;;;;14.60;6.70;;;4.30;99.90;;;;;;4953713;29;20182;-85
2021/01/19 05:54:44;;;;;;;16.23;6.97;;;4.20;99.90;;;;;;4955464;28;20209;-86
2021/01/19 05:57:20;;;;;;;15.83;6.20;;;4.20;99.90;;;;;;4942131;29;20554;-85
2021/01/19 05:59:47;;;;;;;14.83;6.57;;;4.20;99.90;;;;;;4956585;28;20267;-85
2021/01/19 06:02:15;;;;;;;13.87;5.93;;;4.20;99.90;;;;;;4944095;28;20198;-85
2021/01/19 06:04:49;;;;;;;11.93;5.47;;;4.20;99.90;;;;;;4942316;28;20349;-84
2021/01/19 06:07:18;;;;;;;12.53;5.60;;;4.10;99.90;;;;;;4950265;28;20238;-88
2021/01/19 06:09:48;;;;;;;14.47;5.37;;;4.10;99.90;;;;;;4954384;28;20211;-86
2021/01/19 06:12:15;;;;;;;10.50;4.40;;;4.20;99.90;;;;;;4951551;28;20182;-85
2021/01/19 06:15:05;;;;;;;11.57;5.53;;;4.10;99.90;;;;;;4950621;28;20303;-85
2021/01/19 06:17:35;;;;;;;10.60;4.87;;;4.00;99.90;;;;;;4945356;28;20300;-84
2021/01/19 06:20:03;;;;;;;11.87;5.50;;;4.00;99.90;;;;;;4962596;28;20186;-85
2021/01/19 06:22:29;;;;;;;10.63;4.63;;;4.10;99.90;;;;;;4955398;28;20264;-84
2021/01/19 06:24:56;;;;;;;12.53;5.17;;;4.00;99.90;;;;;;4959853;28;20270;-85
2021/01/19 06:27:28;;;;;;;9.47;4.30;;;3.90;99.90;;;;;;4948670;28;20203;-87
2021/01/19 06:29:59;;;;;;;10.30;4.23;;;3.90;99.90;;;;;;4956165;28;20232;-85
2021/01/19 06:32:31;;;;;;;9.67;4.20;;;3.80;99.90;;;;;;4952612;28;20199;-85
2021/01/19 06:35:08;;;;;;;8.83;3.87;;;3.80;99.90;;;;;;4957726;28;20190;-86
2021/01/19 06:37:34;;;;;;;8.17;3.90;;;3.80;99.90;;;;;;4970634;28;20232;-85
2021/01/19 06:40:03;;;;;;;9.10;4.07;;;3.80;99.90;;;;;;4950707;28;20368;-87
2021/01/19 06:42:34;;;;;;;9.30;4.37;;;3.80;99.90;;;;;;4952551;28;20257;-85
2021/01/19 06:45:06;;;;;;;9.30;3.77;;;3.80;99.90;;;;;;4949521;28;20281;-85
2021/01/19 06:47:46;;;;;;;9.30;3.67;;;3.80;99.90;;;;;;4950986;28;20221;-84
2021/01/19 06:50:11;;;;;;;8.83;3.90;;;3.70;99.90;;;;;;4950232;28;20281;-84
2021/01/19 06:52:48;;;;;;;10.20;4.60;;;3.70;99.90;;;;;;4952601;28;20218;-85
2021/01/19 06:55:24;;;;;;;10.53;4.20;;;3.70;99.90;;;;;;4959220;28;20186;-85
2021/01/19 06:58:32;;;;;;;10.50;4.90;;;3.50;99.90;;;;;;4956189;28;20600;-84
2021/01/19 07:01:04;;;;;;;11.23;5.10;;;3.40;99.90;;;;;;4955385;28;20193;-84
2021/01/19 07:03:37;;;;;;;11.03;5.20;;;3.30;99.90;;;;;;4949740;28;20218;-85
2021/01/19 07:06:05;;;;;;;10.67;4.20;;;3.30;99.90;;;;;;4948054;28;20233;-85
2021/01/19 07:09:19;;;;;;;10.77;4.83;;;3.30;99.90;;;;;;4950971;28;20218;-85
2021/01/19 07:12:04;;;;;;;13.43;5.33;;;3.30;99.90;;;;;;4950956;28;20190;-85
2021/01/19 07:14:37;;;;;;;9.87;4.00;;;3.30;99.90;;;;;;4955407;28;20209;-85
2021/01/19 07:17:08;;;;;;;11.17;3.63;;;3.30;99.90;;;;;;4955156;28;20226;-86
2021/01/19 07:19:50;;;;;;;9.33;4.03;;;3.20;99.90;;;;;;4950068;28;20225;-85
2021/01/19 07:22:49;;;;;;;10.63;4.20;;;3.10;99.90;;;;;;4956657;28;20191;-84
2021/01/19 07:25:14;;;;;;;9.77;4.10;;;3.10;99.90;;;;;;4953772;28;20187;-86
2021/01/19 07:27:41;;;;;;;8.33;3.67;;;3.10;99.90;;;;;;4949977;28;20210;-87
2021/01/19 07:30:08;;;;;;;9.17;4.00;;;3.10;99.90;;;;;;4954422;28;20189;-85
2021/01/19 07:32:35;;;;;;;9.90;4.17;;;3.00;99.90;;;;;;4951503;28;20182;-86
2021/01/19 07:35:04;;;;;;;10.27;4.40;;;2.90;99.90;;;;;;4957750;28;20182;-84
2021/01/19 07:37:35;;;;;;;10.17;4.37;;;2.90;99.90;;;;;;4945349;28;20242;-85
2021/01/19 07:40:02;;;;;;;10.03;4.10;;;2.90;99.90;;;;;;4959444;28;20182;-84
2021/01/19 07:42:32;;;;;;;11.37;4.57;;;2.80;99.90;;;;;;4954217;28;20183;-85
2021/01/19 07:45:02;;;;;;;11.67;5.10;;;2.80;99.90;;;;;;4950178;28;20677;-83
2021/01/19 07:47:42;;;;;;;12.13;4.80;;;2.80;99.90;;;;;;4941494;28;20214;-84
2021/01/19 07:50:13;;;;;;;11.50;5.03;;;2.90;99.90;;;;;;4948437;28;20178;-85
2021/01/19 07:52:42;;;;;;;10.30;4.70;;;2.90;99.90;;;;;;4953018;28;20186;-84
2021/01/19 07:55:14;;;;;;;10.57;5.27;;;2.90;99.90;;;;;;4961739;28;20188;-83
2021/01/19 07:57:43;;;;;;;11.33;5.20;;;3.00;99.90;;;;;;4950274;28;20223;-84
2021/01/19 08:00:10;;;;;;;11.50;5.40;;;3.00;99.90;;;;;;4940987;28;20179;-84
2021/01/19 08:02:35;;;;;;;12.70;5.73;;;3.00;99.90;;;;;;4946170;29;20189;-84
2021/01/19 08:05:05;;;;;;;12.43;5.30;;;3.00;99.90;;;;;;4945630;28;20187;-84
2021/01/19 08:07:42;;;;;;;12.40;5.20;;;3.00;99.90;;;;;;4944398;28;20217;-85
2021/01/19 08:10:21;;;;;;;12.73;5.30;;;2.90;99.90;;;;;;4945053;28;20190;-84
2021/01/19 08:12:48;;;;;;;13.00;5.57;;;3.00;99.90;;;;;;4962703;28;20187;-83
2021/01/19 08:15:18;;;;;;;11.43;4.93;;;3.00;99.90;;;;;;4950097;28;20196;-84
2021/01/19 08:17:49;;;;;;;12.50;5.80;;;3.00;99.90;;;;;;4949932;28;20775;-84
2021/01/19 08:20:36;;;;;;;13.77;6.53;;;3.00;99.90;;;;;;4952874;28;20209;-86
2021/01/19 08:23:13;;;;;;;13.10;6.13;;;3.00;99.90;;;;;;4948276;29;20269;-85
2021/01/19 08:25:43;;;;;;;11.67;5.60;;;3.10;99.90;;;;;;4948141;28;20206;-83
2021/01/19 08:28:13;;;;;;;12.23;5.43;;;3.00;99.90;;;;;;4943286;28;20484;-84
2021/01/19 08:30:40;;;;;;;13.20;6.40;;;3.00;99.90;;;;;;4957971;28;20273;-84
2021/01/19 08:33:06;;;;;;;15.30;6.93;;;3.10;99.90;;;;;;4959430;28;20174;-84
2021/01/19 08:35:32;;;;;;;13.87;6.30;;;3.10;99.90;;;;;;4960740;28;20174;-85
2021/01/19 08:38:02;;;;;;;13.27;6.13;;;3.10;99.90;;;;;;4953588;28;20240;-84
2021/01/19 08:40:30;;;;;;;13.30;6.37;;;3.00;99.90;;;;;;4959767;28;20178;-84
2021/01/19 08:42:56;;;;;;;15.93;8.18;;;3.10;99.90;;;;;;4946524;29;20424;-86
2021/01/19 08:45:27;;;;;;;13.23;6.50;;;3.10;99.90;;;;;;4958882;28;20550;-84
2021/01/19 08:47:58;;;;;;;15.27;6.53;;;3.20;99.90;;;;;;4948233;29;20230;-84
2021/01/19 08:50:25;;;;;;;12.13;5.53;;;3.10;99.90;;;;;;4951019;28;20182;-85
2021/01/19 08:52:51;;;;;;;16.58;7.93;;;3.20;99.90;;;;;;4955543;28;20928;-84
2021/01/19 08:55:19;;;;;;;15.90;7.23;;;3.20;99.90;;;;;;4960098;28;20192;-85
2021/01/19 08:57:49;;;;;;;12.67;5.47;;;3.30;99.90;;;;;;4952355;29;20214;-83
2021/01/19 09:00:25;;;;;;;10.77;5.00;;;3.60;99.90;;;;;;4948475;28;20190;-84
2021/01/19 09:02:52;;;;;;;11.67;5.63;;;4.10;99.90;;;;;;4950088;28;20200;-85
2021/01/19 09:05:30;;;;;;;17.57;5.57;;;4.60;99.90;;;;;;4947825;28;20268;-85
2021/01/19 09:07:58;;;;;;;14.93;5.70;;;5.00;99.90;;;;;;4940342;29;20296;-84
2021/01/19 09:10:28;;;;;;;12.83;5.83;;;5.40;99.90;;;;;;4947918;28;20190;-85
2021/01/19 09:12:55;;;;;;;12.83;5.37;;;5.60;99.90;;;;;;4951077;29;20187;-84
2021/01/19 09:15:22;;;;;;;12.33;5.50;;;5.90;99.90;;;;;;4951381;29;20187;-84
2021/01/19 09:17:57;;;;;;;10.87;4.97;;;6.10;99.90;;;;;;4948332;28;20214;-84
2021/01/19 09:20:26;;;;;;;10.30;4.63;;;6.10;99.90;;;;;;4947804;29;20191;-84
2021/01/19 09:22:53;;;;;;;9.57;4.47;;;5.90;99.90;;;;;;4938537;29;20196;-85
2021/01/19 09:25:20;;;;;;;11.60;4.90;;;5.50;99.90;;;;;;4951560;29;20203;-84
2021/01/19 09:27:46;;;;;;;9.27;4.10;;;5.30;99.90;;;;;;4946350;28;20220;-86
2021/01/19 09:30:15;;;;;;;7.67;3.80;;;5.10;99.90;;;;;;4950517;29;20196;-85
2021/01/19 09:32:44;;;;;;;10.10;4.20;;;4.90;99.90;;;;;;4941751;29;20236;-85
2021/01/19 09:35:11;;;;;;;9.37;4.43;;;4.80;99.90;;;;;;4944621;28;21966;-85
2021/01/19 09:37:37;;;;;;;8.23;3.43;;;4.70;99.90;;;;;;4941645;29;20245;-84
2021/01/19 11:05:29;;;;;;;9.83;5.00;;;4.50;99.90;;;;;;3288243;23;20408;-79
2021/01/19 11:29:25;;;;;;;8.27;4.13;;;4.60;99.90;;;;;;5022570;28;20176;-88
2021/01/19 15:45:47;;;;;;;15.47;5.33;;;5.60;99.90;;;;;;6153413;23;20895;31
2021/01/19 15:48:13;;;;;;;19.40;5.37;;;5.60;99.90;;;;;;4933984;29;20225;-87
2021/01/19 15:50:42;;;;;;;15.30;5.60;;;5.60;99.90;;;;;;4958677;28;20211;-86
2021/01/19 15:53:18;;;;;;;15.17;5.13;;;5.60;99.90;;;;;;4957510;28;20188;-86
2021/01/19 15:55:44;;;;;;;12.73;4.73;;;5.60;99.90;;;;;;4969375;28;20177;-87
2021/01/19 15:58:09;;;;;;;28.43;7.10;;;5.60;99.90;;;;;;4953475;28;20190;-88
2021/01/19 16:00:35;;;;;;;36.13;7.43;;;5.60;99.90;;;;;;4961831;28;20700;-86
2021/01/19 16:03:00;;;;;;;12.27;4.77;;;5.60;99.90;;;;;;4957691;28;20198;-88
2021/01/19 16:05:26;;;;;;;10.90;5.03;;;5.70;99.90;;;;;;4960906;28;20278;-87
2021/01/19 16:07:55;;;;;;;12.93;5.83;;;5.90;99.90;;;;;;4953688;29;20213;-88
2021/01/19 16:10:22;;;;;;;13.60;6.23;;;6.40;99.90;;;;;;4956277;28;20203;-86
2021/01/19 16:12:47;;;;;;;12.07;5.77;;;7.00;99.90;;;;;;4968653;28;20180;-89
2021/01/19 16:15:14;;;;;;;11.40;6.00;;;7.50;99.90;;;;;;4951114;29;20187;-88
2021/01/19 16:17:39;;;;;;;11.53;5.80;;;7.90;99.90;;;;;;4956514;29;20222;-88
2021/01/19 16:20:05;;;;;;;12.57;5.60;;;8.30;99.90;;;;;;4958965;28;20237;-88
2021/01/19 16:22:31;;;;;;;11.63;6.07;;;8.60;99.90;;;;;;4947588;28;20666;-88
2021/01/19 16:24:56;;;;;;;11.80;5.90;;;8.90;99.90;;;;;;4960112;28;20183;-87
2021/01/19 16:27:25;;;;;;;12.83;6.20;;;9.30;99.90;;;;;;4957050;28;20207;-87
2021/01/19 16:29:50;;;;;;;10.17;5.07;;;9.60;99.90;;;;;;4953928;29;20210;-87
2021/01/19 16:32:16;;;;;;;11.30;5.87;;;9.80;99.90;;;;;;4958996;28;20213;-87
2021/01/19 16:34:41;;;;;;;11.03;5.43;;;9.60;99.90;;;;;;4956374;28;20175;-88
2021/01/19 16:37:11;;;;;;;10.17;5.63;;;9.50;99.90;;;;;;4970321;28;20646;-87
2021/01/19 16:39:43;;;;;;;11.33;5.80;;;9.20;99.90;;;;;;4979984;28;20199;-86
2021/01/19 16:42:09;;;;;;;19.73;5.70;;;8.90;99.90;;;;;;4959909;28;20182;-89
2021/01/19 16:44:35;;;;;;;13.60;6.37;;;8.50;99.90;;;;;;4963464;28;20188;-88
2021/01/19 16:47:00;;;;;;;15.93;6.70;;;8.20;99.90;;;;;;4955874;28;20191;-90
2021/01/19 16:49:26;;;;;;;17.77;6.67;;;7.80;99.90;;;;;;4953186;28;20219;-88
2021/01/19 16:51:51;;;;;;;12.53;6.50;;;7.50;99.90;;;;;;4961417;28;20192;-88
2021/01/19 16:54:17;;;;;;;18.00;6.57;;;7.10;99.90;;;;;;4974005;28;20182;-88
2021/01/19 16:56:42;;;;;;;26.43;6.97;;;7.10;99.90;;;;;;4953092;28;20174;-88
2021/01/19 16:59:10;;;;;;;21.37;7.17;;;7.00;99.90;;;;;;4953543;29;20198;-87
2021/01/19 17:01:36;;;;;;;29.50;6.93;;;6.90;99.90;;;;;;4953674;28;20191;-87
2021/01/19 17:04:01;;;;;;;13.57;5.77;;;6.90;99.90;;;;;;4955672;29;20330;-88
2021/01/19 17:06:31;;;;;;;25.33;6.43;;;6.80;99.90;;;;;;4958171;28;20258;-88
2021/01/19 17:08:58;;;;;;;12.67;5.73;;;6.80;99.90;;;;;;4955797;28;20199;-90
2021/01/19 17:11:24;;;;;;;13.63;5.83;;;6.80;99.90;;;;;;4951474;28;20265;-89
2021/01/19 17:13:49;;;;;;;27.87;6.40;;;6.70;99.90;;;;;;4956515;28;20234;-89
2021/01/19 17:16:16;;;;;;;26.37;6.20;;;6.70;99.90;;;;;;4949075;28;20180;-88
2021/01/19 17:18:42;;;;;;;14.03;6.17;;;6.70;99.90;;;;;;4953078;28;20198;-87
2021/01/19 17:21:08;;;;;;;52.90;8.77;;;6.50;99.90;;;;;;4952328;29;20234;-90
2021/01/19 17:23:33;;;;;;;13.07;6.30;;;6.50;99.90;;;;;;4956830;28;20191;-86
2021/01/19 17:25:59;;;;;;;44.87;8.27;;;6.50;99.90;;;;;;4946269;28;21616;-87
2021/01/19 17:28:25;;;;;;;30.10;8.23;;;6.40;99.90;;;;;;4956156;29;20206;-87
2021/01/19 17:30:51;;;;;;;23.53;8.73;;;6.40;99.90;;;;;;4948787;28;20728;-87
2021/01/19 17:33:28;;;;;;;17.83;6.67;;;6.40;99.90;;;;;;4951626;29;20214;-88
2021/01/19 17:35:53;;;;;;;16.07;7.13;;;6.40;99.90;;;;;;4959844;28;20179;-87
2021/01/19 17:38:20;;;;;;;19.77;6.73;;;6.40;99.90;;;;;;4948981;29;20206;-87
2021/01/19 17:40:47;;;;;;;23.97;7.70;;;6.40;99.90;;;;;;4954356;28;20215;-87
2021/01/19 17:43:12;;;;;;;16.33;7.87;;;6.30;99.90;;;;;;4955995;28;20189;-86
2021/01/19 17:45:39;;;;;;;17.37;6.43;;;6.30;99.90;;;;;;4953490;29;20270;-87
2021/01/19 17:48:05;;;;;;;40.33;8.17;;;6.30;99.90;;;;;;4952639;29;20211;-87
2021/01/19 17:50:30;;;;;;;17.37;6.80;;;6.30;99.90;;;;;;4953452;28;20219;-89
2021/01/19 17:52:59;;;;;;;18.17;6.20;;;6.30;99.90;;;;;;4959646;28;20242;-88
2021/01/19 17:55:25;;;;;;;19.13;6.97;;;6.30;99.90;;;;;;4959132;28;20184;-86
2021/01/19 17:57:50;;;;;;;21.50;7.07;;;6.30;99.90;;;;;;4956903;28;20653;-88
2021/01/19 18:00:17;;;;;;;33.60;8.20;;;6.30;99.90;;;;;;4959269;29;20698;-88
2021/01/19 18:02:50;;;;;;;13.73;6.13;;;6.30;99.90;;;;;;4949101;28;20218;-86
2021/01/19 18:05:16;;;;;;;15.00;5.50;;;6.30;99.90;;;;;;4957256;28;20202;-86
2021/01/19 18:07:42;;;;;;;14.33;5.53;;;6.30;99.90;;;;;;4954261;28;20677;-86
2021/01/19 18:10:08;;;;;;;13.47;5.57;;;6.30;99.90;;;;;;4958630;28;20339;-87
2021/01/19 18:12:34;;;;;;;13.77;5.70;;;6.30;99.90;;;;;;4950569;28;20194;-87
2021/01/19 18:15:00;;;;;;;14.80;6.53;;;6.30;99.90;;;;;;4956780;28;20210;-88
2021/01/19 18:17:26;;;;;;;16.77;7.20;;;6.30;99.90;;;;;;4964578;28;20218;-86
2021/01/19 18:19:52;;;;;;;12.13;5.27;;;6.30;99.90;;;;;;4954410;28;20213;-86
2021/01/19 18:22:18;;;;;;;9.57;4.37;;;6.30;99.90;;;;;;4952037;28;20234;-86
2021/01/19 18:24:45;;;;;;;9.83;4.23;;;6.30;99.90;;;;;;4953738;28;20655;-86
2021/01/19 18:27:11;;;;;;;9.90;4.30;;;6.30;99.90;;;;;;4963977;28;20186;-87
2021/01/19 18:29:37;;;;;;;10.20;4.00;;;6.40;99.90;;;;;;4949522;29;20221;-88
2021/01/19 18:32:04;;;;;;;9.03;3.50;;;6.40;99.90;;;;;;4956060;28;20552;-88
2021/01/19 18:34:31;;;;;;;13.23;4.27;;;6.40;99.90;;;;;;4952420;29;20682;-88
2021/01/19 18:37:01;;;;;;;7.77;3.27;;;6.30;99.90;;;;;;4949778;28;20294;-86
2021/01/19 18:39:29;;;;;;;7.67;3.17;;;6.30;99.90;;;;;;4957716;28;20207;-88
2021/01/19 18:42:11;;;;;;;8.90;3.37;;;6.40;99.90;;;;;;4954843;28;20265;-87
2021/01/19 18:44:37;;;;;;;8.33;2.97;;;6.40;99.90;;;;;;4953965;28;20191;-87
2021/01/19 18:47:03;;;;;;;10.70;3.20;;;6.40;99.90;;;;;;4956563;28;20206;-87
2021/01/19 18:49:28;;;;;;;8.83;3.10;;;6.40;99.90;;;;;;4956360;28;20311;-85
2021/01/19 18:51:58;;;;;;;6.30;2.67;;;6.40;99.90;;;;;;4956258;29;20210;-87
2021/01/19 18:54:26;;;;;;;7.93;3.03;;;6.40;99.90;;;;;;4958081;29;20179;-87
2021/01/19 18:56:52;;;;;;;7.63;2.70;;;6.40;99.90;;;;;;4952859;28;20215;-87
2021/01/19 18:59:17;;;;;;;8.33;3.17;;;6.40;99.90;;;;;;4977789;28;20210;-87